Mituhiro5 — JD2850 — position and weather

sailwx.info

Track history (hours):
 
Tides and Currents Weather Stations Pressure Air Temp Water Temp Dewpoint Dewpoint Depression Visibility Wind Speed Wind Dir Waves Ship Positions

Mituhiro5

Last reported at 2018-Jun-07 20:39 UTC. Time now 2018-Jun-22 20:16 UTC.
Position N 35°23' E 139°42'.
Warning: this ship's position is 14 days out of date.

Length 68 m; draft 3.6 m.

Type: Cargo ship. MMSI: 431000818.

Date/timePositionNaut miles runAvg speedWind from/ knotsBaromVisibWave heightAir tempDewpointWater temp
2018-Jun-07 20:39N 35°23' E 139°42'110.9
2018-Jun-07 20:31N 35°24' E 139°43'6 0.1
2018-Jun-05 20:40N 35°22' E 139°50'6 0.4
2018-Jun-05 03:42N 35°26' E 139°44'211.2
2018-Jun-05 03:30N 35°27' E 139°41'3 5.3
2018-Jun-05 03:00N 35°29' E 139°39'0 0.0
2018-Jun-05 02:25N 35°29' E 139°39'0 0.0
2018-Jun-05 01:58N 35°29' E 139°39'0 0.0
2018-Jun-05 01:25N 35°29' E 139°39'0 0.1
2018-Jun-05 00:58N 35°29' E 139°39'0 0.0
2018-Jun-05 00:28N 35°29' E 139°39'0 0.0
2018-Jun-04 23:58N 35°29' E 139°39'0 0.0
2018-Jun-04 23:28N 35°29' E 139°39'0 0.0
2018-Jun-04 23:00N 35°29' E 139°39'3 6.0
2018-Jun-04 22:31N 35°27' E 139°42'0 0.4
2018-Jun-04 22:00N 35°27' E 139°42'0 0.0
2018-Jun-04 21:30N 35°27' E 139°42'0 0.0
2018-Jun-04 21:00N 35°27' E 139°42'0 0.0
2018-Jun-04 20:15N 35°27' E 139°42'0 0.0
2018-Jun-04 19:51N 35°27' E 139°42'0 0.0
2018-Jun-04 19:30N 35°27' E 139°42'0 0.0
2018-Jun-04 19:00N 35°27' E 139°42'0 0.0
2018-Jun-04 18:18N 35°27' E 139°42'0 0.0
2018-Jun-04 18:00N 35°27' E 139°42'0 0.0
2018-Jun-04 17:24N 35°27' E 139°42'0 0.0
2018-Jun-04 16:57N 35°27' E 139°42'0 0.0
2018-Jun-04 16:24N 35°27' E 139°42'0 0.0
2018-Jun-04 16:00N 35°27' E 139°42'0 0.0
2018-Jun-04 15:30N 35°27' E 139°42'0 0.0
2018-Jun-04 15:00N 35°27' E 139°42'0 0.0
2018-Jun-04 14:27N 35°27' E 139°42'0 0.0
2018-Jun-04 14:00N 35°27' E 139°42'0 0.0
2018-Jun-04 12:48N 35°27' E 139°42'0 0.1
2018-Jun-04 12:30N 35°27' E 139°42'3 6.9
2018-Jun-04 12:00N 35°24' E 139°43'  
Track history (hours):
 
Tides and Currents Weather Stations Pressure Air Temp Water Temp Dewpoint Dewpoint Depression Visibility Wind Speed Wind Dir Waves Ship Positions

Mituhiro5

Last reported at 2018-Jun-07 20:39 UTC. Time now 2018-Jun-22 20:16 UTC.
Position N 35°23' E 139°42'.
Warning: this ship's position is 14 days out of date.

Length 68 m; draft 3.6 m.

Type: Cargo ship. MMSI: 431000818.

Date/timePositionNaut miles runAvg speedWind from/ knotsBaromVisibWave heightAir tempDewpointWater temp
2018-Jun-07 20:39N 35°23' E 139°42'110.9
2018-Jun-07 20:31N 35°24' E 139°43'6 0.1
2018-Jun-05 20:40N 35°22' E 139°50'6 0.4
2018-Jun-05 03:42N 35°26' E 139°44'211.2
2018-Jun-05 03:30N 35°27' E 139°41'3 5.3
2018-Jun-05 03:00N 35°29' E 139°39'0 0.0
2018-Jun-05 02:25N 35°29' E 139°39'0 0.0
2018-Jun-05 01:58N 35°29' E 139°39'0 0.0
2018-Jun-05 01:25N 35°29' E 139°39'0 0.1
2018-Jun-05 00:58N 35°29' E 139°39'0 0.0
2018-Jun-05 00:28N 35°29' E 139°39'0 0.0
2018-Jun-04 23:58N 35°29' E 139°39'0 0.0
2018-Jun-04 23:28N 35°29' E 139°39'0 0.0
2018-Jun-04 23:00N 35°29' E 139°39'3 6.0
2018-Jun-04 22:31N 35°27' E 139°42'0 0.4
2018-Jun-04 22:00N 35°27' E 139°42'0 0.0
2018-Jun-04 21:30N 35°27' E 139°42'0 0.0
2018-Jun-04 21:00N 35°27' E 139°42'0 0.0
2018-Jun-04 20:15N 35°27' E 139°42'0 0.0
2018-Jun-04 19:51N 35°27' E 139°42'0 0.0
2018-Jun-04 19:30N 35°27' E 139°42'0 0.0
2018-Jun-04 19:00N 35°27' E 139°42'0 0.0
2018-Jun-04 18:18N 35°27' E 139°42'0 0.0
2018-Jun-04 18:00N 35°27' E 139°42'0 0.0
2018-Jun-04 17:24N 35°27' E 139°42'0 0.0
2018-Jun-04 16:57N 35°27' E 139°42'0 0.0
2018-Jun-04 16:24N 35°27' E 139°42'0 0.0
2018-Jun-04 16:00N 35°27' E 139°42'0 0.0
2018-Jun-04 15:30N 35°27' E 139°42'0 0.0
2018-Jun-04 15:00N 35°27' E 139°42'0 0.0
2018-Jun-04 14:27N 35°27' E 139°42'0 0.0
2018-Jun-04 14:00N 35°27' E 139°42'0 0.0
2018-Jun-04 12:48N 35°27' E 139°42'0 0.1
2018-Jun-04 12:30N 35°27' E 139°42'3 6.9
2018-Jun-04 12:00N 35°24' E 139°43'  

Dump ship's entire track history